Main page
METAR-TAF:

METAR-TAF

Airports :

Sukkur Airport

Sukkur, Pakistan

latitude: 27-43-19N, longitude: 068-47-31E, elevation: 60 m

Current weather observation

The report was made 44 minutes ago, at 03:00 UTC
Calm wind
Temperature 13°C
Humidity 77%
Pressure 1011 hPa
Visibility: 2000 m
haze

METAR: OPSK 010300Z 00000KT 2000 HZ NSC 13/09 Q1011 NOSIG

Time: 08:44 (03:44 UTC)

Forecast

The report was made 6 hours and 14 minutes ago, at 21:30 UTC
Forecast valid from 01 at 00 UTC to 01 at 24 UTC
Wind 8 kt from the West/Northwest
Visibility: 2000 m
smoke
Temporary
from 01 at 00 UTC to 01 at 04 UTC
Wind 3 kt from variable directions
Visibility: 1200 m
mist
Becoming
from 01 at 15 UTC to 01 at 17 UTC
Wind 12 kt from the West
Visibility: 5000 m
haze
From 01 at 1900 UTC
Wind 6 kt from the North/Northwest
Visibility: 2500 m
smoke

TAF: OPSK 282130Z 0100/0124 30008KT 2000 FU NSC TEMPO 0100/0104 VRB03KT 1200 BR NSC BECMG 0115/0117 26012KT 5000 HZ NSC FM011900 33006KT 2500 FU NSC

Weather observations and forecasts of more than 4000 airports (METAR and TAF reports).

The available stations are represented by yellow and red dots on the map.

Hover mouse over dot to see the name of the station.

Then click to see weather observations and forecasts.

To change the map : click on the green buttons with a black cross to zoom in, on the green button with a dash to zoom out, or on the green arrows for adjacent maps.


METAR-TAF: